Main page
METAR-TAF:

Airports :

London-Southend, England

London Southend Airport

latitude: 51-34N, longitude: 000-42E, elevation: 15 m

Current weather observation

The report was made 42 minutes ago, at 06:20 UTC
Wind 3 kt from variable directions
Temperature 14°C
Humidity 88%
Pressure 1020 hPa
Visibility 10 km or more
no clouds below 1500 m and no cumulonimbus

METAR: EGMC 290620Z VRB03KT CAVOK 14/12 Q1020

Time: 08:02 (07:02 UTC)

Forecast

The report was made 2 hours and 0 minutes ago, at 05:02 UTC
Forecast valid from 29 at 06 UTC to 29 at 15 UTC
Wind 5 kt from the North/Northwest
Visibility 10 km or more
Scattered clouds at a height of 4500 ft
Temporary
from 29 at 06 UTC to 29 at 08 UTC
Broken clouds at a height of 1000 ft

TAF: EGMC 290502Z 2906/2915 33005KT 9999 SCT045 TEMPO 2906/2908 BKN010

METAR-TAF

Weather observations and forecasts of more than 4000 airports (METAR and TAF reports).

The available stations are represented by yellow and red dots on the map.

Hover mouse over dot to see the name of the station.

Then click to see weather observations and forecasts.

To change the map : click on the green buttons with a black cross to zoom in, on the green button with a dash to zoom out, or on the green arrows for adjacent maps.


METAR-TAF: